Time;durP1;ratioP1;P1;durP2;ratioP2;P2;SDS_P1;SDS_P2;PMS_P1;PMS_P2;Temp;Humidity;BMP_temperature;BMP_pressure;BME280_temperature;BME280_humidity;BME280_pressure;Samples;Min_cycle;Max_cycle;Signal;HPM_P1;HPM_P2
2022/08/19 00:00:08;;;;;;;18.48;15.65;;;19.10;99.90;;;;;;4962112;28;20203;-78
2022/08/19 00:02:34;;;;;;;18.60;16.25;;;19.10;99.90;;;;;;4978093;28;20168;-79
2022/08/19 00:05:01;;;;;;;19.13;16.17;;;19.00;99.90;;;;;;4977843;28;20172;-78
2022/08/19 00:07:26;;;;;;;19.23;16.42;;;19.00;99.90;;;;;;4977629;28;20191;-78
2022/08/19 00:09:52;;;;;;;20.08;15.70;;;19.00;99.90;;;;;;4945396;28;20184;-79
2022/08/19 00:12:17;;;;;;;18.73;16.10;;;18.90;99.90;;;;;;4961952;28;20693;-79
2022/08/19 00:14:43;;;;;;;20.95;17.15;;;19.00;99.90;;;;;;4961907;28;20215;-78
2022/08/19 00:17:09;;;;;;;19.75;16.30;;;19.00;99.90;;;;;;4945596;28;20543;-79
2022/08/19 00:19:36;;;;;;;18.80;15.45;;;18.90;99.90;;;;;;4977488;28;20183;-78
2022/08/19 00:22:03;;;;;;;19.45;16.27;;;18.90;99.90;;;;;;4961998;28;20176;-79
2022/08/19 00:24:28;;;;;;;19.08;15.95;;;18.80;99.90;;;;;;4961819;28;20175;-78
2022/08/19 00:26:56;;;;;;;21.08;17.42;;;18.70;99.90;;;;;;4977616;28;20190;-79
2022/08/19 00:29:23;;;;;;;21.95;17.73;;;18.70;99.90;;;;;;4962290;28;20232;-78
2022/08/19 00:31:52;;;;;;;18.85;15.95;;;18.80;99.90;;;;;;4977520;28;20176;-79
2022/08/19 00:34:18;;;;;;;18.27;15.25;;;18.70;99.90;;;;;;4976887;28;20230;-79
2022/08/19 00:36:44;;;;;;;19.20;16.08;;;18.70;99.90;;;;;;4961216;28;20176;-79
2022/08/19 00:39:10;;;;;;;22.15;17.00;;;18.60;99.90;;;;;;4961273;28;20214;-79
2022/08/19 00:41:36;;;;;;;20.88;17.13;;;18.60;99.90;;;;;;4961064;28;20226;-79
2022/08/19 00:44:06;;;;;;;20.40;16.90;;;18.70;99.90;;;;;;4977106;28;20220;-78
2022/08/19 00:46:35;;;;;;;20.08;17.02;;;18.70;99.90;;;;;;4961076;28;20183;-78
2022/08/19 00:49:09;;;;;;;20.50;17.17;;;18.80;99.90;;;;;;4961105;28;20219;-78
2022/08/19 00:51:36;;;;;;;18.95;16.08;;;18.70;99.90;;;;;;4961776;28;20192;-78
2022/08/19 00:54:02;;;;;;;17.50;15.00;;;18.70;99.90;;;;;;4945254;28;20286;-78
2022/08/19 00:56:30;;;;;;;18.88;15.88;;;18.60;99.90;;;;;;4978104;28;20262;-79
2022/08/19 00:58:58;;;;;;;20.63;16.85;;;18.60;99.90;;;;;;4948542;28;20207;-78
2022/08/19 01:01:24;;;;;;;19.55;16.70;;;18.60;99.90;;;;;;4980253;28;20216;-78
2022/08/19 01:03:50;;;;;;;20.88;16.50;;;18.60;99.90;;;;;;4981220;28;20215;-78
2022/08/19 01:06:16;;;;;;;20.80;15.80;;;18.60;99.90;;;;;;4964450;28;20246;-79
2022/08/19 01:08:42;;;;;;;17.33;15.27;;;18.60;99.90;;;;;;4964764;28;20678;-78
2022/08/19 01:11:08;;;;;;;17.73;15.20;;;18.60;99.90;;;;;;4948403;28;20237;-78
2022/08/19 01:13:35;;;;;;;19.38;15.88;;;18.50;99.90;;;;;;4963807;28;20203;-77
2022/08/19 01:16:04;;;;;;;20.13;16.20;;;18.40;99.90;;;;;;4964317;28;20242;-78
2022/08/19 01:18:32;;;;;;;19.38;15.60;;;18.50;99.90;;;;;;4948483;28;20249;-78
2022/08/19 01:21:05;;;;;;;17.58;15.35;;;18.50;99.90;;;;;;4964063;28;20256;-78
2022/08/19 01:23:42;;;;;;;18.65;15.85;;;18.50;99.90;;;;;;4997884;28;20172;-78
2022/08/19 01:26:13;;;;;;;18.08;16.08;;;18.50;99.90;;;;;;4980198;28;20176;-78
2022/08/19 01:28:40;;;;;;;18.75;15.57;;;18.60;99.90;;;;;;4964281;28;20637;-79
2022/08/19 01:31:12;;;;;;;20.80;16.98;;;18.60;99.90;;;;;;4980385;28;20299;-79
2022/08/19 01:33:38;;;;;;;18.05;14.32;;;18.50;99.90;;;;;;4980154;28;20229;-78
2022/08/19 01:36:25;;;;;;;18.42;14.77;;;18.50;99.90;;;;;;4980123;28;20266;-79
2022/08/19 01:38:51;;;;;;;19.48;15.80;;;18.50;99.90;;;;;;4980002;28;20207;-79
2022/08/19 01:41:18;;;;;;;19.20;16.30;;;18.60;99.90;;;;;;4947517;28;20190;-78
2022/08/19 01:43:44;;;;;;;21.88;16.77;;;18.60;99.90;;;;;;4964031;28;20721;-78
2022/08/19 01:46:10;;;;;;;17.63;14.45;;;18.60;99.90;;;;;;4964056;28;20175;-79
2022/08/19 01:48:40;;;;;;;18.65;15.52;;;18.50;99.90;;;;;;4963505;28;20204;-79
2022/08/19 01:51:06;;;;;;;17.65;14.75;;;18.60;99.90;;;;;;4979858;28;20188;-78
2022/08/19 01:53:32;;;;;;;19.48;16.10;;;18.60;99.90;;;;;;4979844;28;20179;-78
2022/08/19 01:55:58;;;;;;;18.48;16.02;;;18.60;99.90;;;;;;4979506;28;20168;-79
2022/08/19 01:58:31;;;;;;;18.52;15.82;;;18.60;99.90;;;;;;4979889;28;20204;-78
2022/08/19 02:00:57;;;;;;;18.70;15.30;;;18.70;99.90;;;;;;4979339;28;20194;-78
2022/08/19 02:03:23;;;;;;;19.98;16.67;;;18.70;99.90;;;;;;4964021;28;20223;-77
2022/08/19 02:05:58;;;;;;;20.08;15.90;;;18.70;99.90;;;;;;4979468;28;20171;-78
2022/08/19 02:08:24;;;;;;;18.67;15.02;;;18.60;99.90;;;;;;4962631;28;20210;-79
2022/08/19 02:10:49;;;;;;;18.38;15.68;;;18.60;99.90;;;;;;4947070;28;20187;-79
2022/08/19 02:13:16;;;;;;;19.13;16.00;;;18.50;99.90;;;;;;4979684;28;20195;-78
2022/08/19 02:15:42;;;;;;;18.63;15.90;;;18.60;99.90;;;;;;4979669;28;20204;-79
2022/08/19 02:18:08;;;;;;;20.95;15.65;;;18.60;99.90;;;;;;4947341;28;20202;-78
2022/08/19 02:20:34;;;;;;;18.17;15.68;;;18.60;99.90;;;;;;4963671;28;20199;-78
2022/08/19 02:23:00;;;;;;;17.58;14.98;;;18.70;99.90;;;;;;4963213;28;20183;-78
2022/08/19 02:25:26;;;;;;;20.35;15.88;;;18.70;99.90;;;;;;4963571;28;20679;-78
2022/08/19 02:27:53;;;;;;;19.73;15.60;;;18.60;99.90;;;;;;4963301;28;20235;-78
2022/08/19 02:30:20;;;;;;;17.88;15.45;;;18.60;99.90;;;;;;4979429;28;20172;-78
2022/08/19 02:32:46;;;;;;;18.27;14.93;;;18.60;99.90;;;;;;4979286;28;20610;-78
2022/08/19 02:35:13;;;;;;;19.15;14.73;;;18.60;99.90;;;;;;4963341;28;20701;-78
2022/08/19 02:40:23;;;;;;;18.13;15.40;;;18.50;99.90;;;;;;4997212;28;20186;-78
2022/08/19 02:42:49;;;;;;;20.95;16.65;;;18.50;99.90;;;;;;4963361;28;20259;-78
2022/08/19 02:45:14;;;;;;;17.38;14.35;;;18.60;99.90;;;;;;4946906;28;20650;-78
2022/08/19 02:47:40;;;;;;;17.73;15.00;;;18.60;99.90;;;;;;4963191;28;20219;-78
2022/08/19 02:50:06;;;;;;;17.85;14.60;;;18.60;99.90;;;;;;4979147;28;20791;-78
2022/08/19 02:52:33;;;;;;;16.05;13.80;;;18.60;99.90;;;;;;4979144;28;20175;-78
2022/08/19 02:54:59;;;;;;;17.80;15.30;;;18.60;99.90;;;;;;4996571;28;20565;-78
2022/08/19 02:57:26;;;;;;;17.50;15.25;;;18.60;99.90;;;;;;4963661;28;20195;-78
2022/08/19 02:59:52;;;;;;;16.52;14.75;;;18.70;99.90;;;;;;4962540;28;20247;-79
2022/08/19 03:02:18;;;;;;;18.35;15.52;;;18.70;99.90;;;;;;4978894;28;20596;-79
2022/08/19 03:04:43;;;;;;;19.00;15.63;;;18.80;99.90;;;;;;4979539;28;20646;-79
2022/08/19 03:07:13;;;;;;;18.58;14.98;;;18.70;99.90;;;;;;4962847;28;20219;-79
2022/08/19 03:09:39;;;;;;;22.08;17.10;;;18.70;99.90;;;;;;4979068;28;20270;-78
2022/08/19 03:12:05;;;;;;;18.73;16.13;;;18.70;99.90;;;;;;4947007;28;20617;-78
2022/08/19 03:14:32;;;;;;;18.55;16.55;;;18.70;99.90;;;;;;4978984;28;20253;-78
2022/08/19 03:16:58;;;;;;;20.42;16.90;;;18.60;99.90;;;;;;4979092;28;20178;-79
2022/08/19 03:19:24;;;;;;;19.65;16.30;;;18.60;99.90;;;;;;4978655;28;20171;-78
2022/08/19 03:21:51;;;;;;;19.15;16.17;;;18.70;99.90;;;;;;4962878;28;20176;-78
2022/08/19 03:24:18;;;;;;;21.00;16.98;;;18.70;99.90;;;;;;4979066;28;20180;-78
2022/08/19 03:26:47;;;;;;;19.75;16.17;;;18.70;99.90;;;;;;4947542;28;20190;-78
2022/08/19 03:29:13;;;;;;;18.20;15.63;;;18.60;99.90;;;;;;4978822;28;20195;-78
2022/08/19 03:31:41;;;;;;;16.92;14.05;;;18.60;99.90;;;;;;4978888;28;20202;-78
2022/08/19 03:34:06;;;;;;;17.60;14.48;;;18.60;99.90;;;;;;4963290;28;20204;-78
2022/08/19 03:36:32;;;;;;;17.85;15.27;;;18.60;99.90;;;;;;4962572;28;20179;-79
2022/08/19 03:39:00;;;;;;;16.17;14.07;;;18.60;99.90;;;;;;4995595;23;20259;-77
2022/08/19 03:41:32;;;;;;;17.63;14.45;;;18.60;99.90;;;;;;4956045;28;20172;-77
2022/08/19 03:43:58;;;;;;;16.83;14.68;;;18.60;99.90;;;;;;4940225;28;20220;-77
2022/08/19 03:46:27;;;;;;;21.10;15.95;;;18.50;99.90;;;;;;4956157;28;20180;-77
2022/08/19 03:48:55;;;;;;;16.63;14.73;;;18.50;99.90;;;;;;4950664;28;20203;-77
2022/08/19 03:51:30;;;;;;;18.80;15.68;;;18.50;99.90;;;;;;4971851;28;20188;-77
2022/08/19 03:53:56;;;;;;;17.25;14.60;;;18.40;99.90;;;;;;4973364;28;20246;-77
2022/08/19 03:56:22;;;;;;;17.58;14.88;;;18.50;99.90;;;;;;4972058;28;20181;-77
2022/08/19 03:58:48;;;;;;;18.00;15.35;;;18.40;99.90;;;;;;4972071;28;20197;-78
2022/08/19 04:01:17;;;;;;;17.33;15.43;;;18.40;99.90;;;;;;4972097;28;20180;-78
2022/08/19 04:03:46;;;;;;;17.70;14.70;;;18.40;99.90;;;;;;4971948;28;20172;-77
2022/08/19 04:06:17;;;;;;;16.63;14.32;;;18.50;99.90;;;;;;4956035;28;20267;-76
2022/08/19 04:08:45;;;;;;;12.55;11.23;;;18.50;99.90;;;;;;4971880;28;20203;-76
2022/08/19 04:11:14;;;;;;;15.95;14.05;;;18.60;99.90;;;;;;4971494;28;20176;-76
2022/08/19 04:13:41;;;;;;;16.58;12.80;;;18.90;99.90;;;;;;4973090;28;20200;-79
2022/08/19 04:16:09;;;;;;;17.48;14.07;;;19.20;99.90;;;;;;4971927;28;20177;-77
2022/08/19 04:18:36;;;;;;;17.25;14.35;;;19.20;99.90;;;;;;4971840;28;20683;-77
2022/08/19 04:21:02;;;;;;;17.05;14.25;;;19.00;99.90;;;;;;4971746;28;20617;-77
2022/08/19 04:23:28;;;;;;;15.35;13.75;;;18.90;99.90;;;;;;4971833;28;20255;-77
2022/08/19 04:25:54;;;;;;;17.15;14.65;;;18.70;99.90;;;;;;4971732;28;20188;-77
2022/08/19 04:28:21;;;;;;;17.30;15.18;;;18.50;99.90;;;;;;4971888;28;20208;-77
2022/08/19 04:30:50;;;;;;;19.80;15.88;;;18.50;99.90;;;;;;4971556;28;20185;-77
2022/08/19 04:33:19;;;;;;;17.98;15.23;;;18.40;99.90;;;;;;4975220;28;20176;-77
2022/08/19 04:35:48;;;;;;;20.27;16.17;;;18.50;99.90;;;;;;4975480;28;20211;-77
2022/08/19 04:38:15;;;;;;;20.70;15.93;;;18.60;99.90;;;;;;4975379;28;20419;-76
2022/08/19 04:43:31;;;;;;;18.05;15.60;;;18.70;99.90;;;;;;4976827;28;20219;-77
2022/08/19 04:45:57;;;;;;;17.58;15.30;;;18.70;99.90;;;;;;4975321;28;20279;-76
2022/08/19 04:48:27;;;;;;;16.50;14.15;;;18.70;99.90;;;;;;4975120;28;20279;-76
2022/08/19 04:50:57;;;;;;;17.85;15.30;;;18.70;99.90;;;;;;4976278;28;20196;-76
2022/08/19 04:53:28;;;;;;;18.95;15.48;;;18.70;99.90;;;;;;4975241;28;20208;-75
2022/08/19 04:55:56;;;;;;;18.20;15.23;;;18.70;99.90;;;;;;4958968;28;20235;-76
2022/08/19 04:58:23;;;;;;;16.70;14.90;;;18.70;99.90;;;;;;4975013;28;20192;-76
2022/08/19 05:00:48;;;;;;;17.23;14.88;;;18.70;99.90;;;;;;4974761;28;20172;-75
2022/08/19 05:03:16;;;;;;;18.38;16.38;;;18.80;99.90;;;;;;4974911;28;20176;-76
2022/08/19 05:05:48;;;;;;;17.40;15.50;;;18.80;99.90;;;;;;4975115;28;20189;-77
2022/08/19 05:08:19;;;;;;;17.23;14.93;;;18.90;99.90;;;;;;4975227;28;20200;-75
2022/08/19 05:10:46;;;;;;;18.92;15.85;;;18.90;99.90;;;;;;4974606;28;20271;-75
2022/08/19 05:13:12;;;;;;;16.85;13.98;;;18.90;99.90;;;;;;4958893;28;20176;-76
2022/08/19 05:15:37;;;;;;;20.05;15.73;;;19.00;99.90;;;;;;4958542;28;20373;-76
2022/08/19 05:23:31;;;;;;;20.60;15.50;;;19.50;99.90;;;;;;4961439;28;20182;-75
2022/08/19 05:25:56;;;;;;;17.77;15.60;;;19.50;99.90;;;;;;4974533;28;20184;-77
2022/08/19 05:28:22;;;;;;;19.08;16.15;;;19.50;99.90;;;;;;4975393;28;20211;-78
2022/08/19 05:30:50;;;;;;;18.00;15.85;;;19.30;99.90;;;;;;4958648;28;20208;-77
2022/08/19 05:33:16;;;;;;;19.27;17.15;;;19.30;99.90;;;;;;4974370;28;20184;-76
2022/08/19 05:35:42;;;;;;;15.45;13.85;;;19.20;99.90;;;;;;4974492;28;20297;-77
2022/08/19 05:38:08;;;;;;;19.92;15.93;;;19.30;99.90;;;;;;4958113;28;20216;-76
2022/08/19 05:40:38;;;;;;;19.48;16.70;;;19.30;99.90;;;;;;4974053;28;20180;-75
2022/08/19 05:43:06;;;;;;;18.90;16.33;;;19.20;99.90;;;;;;4974259;28;20185;-75
2022/08/19 05:45:32;;;;;;;19.85;16.92;;;19.10;99.90;;;;;;4973939;28;20188;-75
2022/08/19 05:47:58;;;;;;;20.52;17.73;;;19.00;99.90;;;;;;4974074;28;20299;-74
2022/08/19 05:50:26;;;;;;;21.20;17.73;;;19.00;99.90;;;;;;4973905;28;20271;-73
2022/08/19 05:52:52;;;;;;;18.90;15.85;;;19.10;99.90;;;;;;4974135;28;20184;-75
2022/08/19 05:55:19;;;;;;;18.00;16.02;;;19.30;99.90;;;;;;4970798;28;20211;-74
2022/08/19 05:57:45;;;;;;;19.25;17.05;;;19.50;99.90;;;;;;4941860;28;20204;-75
2022/08/19 06:00:12;;;;;;;19.63;16.85;;;19.50;99.90;;;;;;4957685;28;20191;-75
2022/08/19 06:02:38;;;;;;;20.10;17.23;;;19.40;99.90;;;;;;4957896;28;20176;-74
2022/08/19 06:05:08;;;;;;;20.63;17.90;;;19.40;99.90;;;;;;4941817;28;20350;-75
2022/08/19 06:07:35;;;;;;;19.77;16.20;;;19.40;99.90;;;;;;4974887;28;20197;-79
2022/08/19 06:10:01;;;;;;;21.23;17.40;;;19.50;99.90;;;;;;4973737;28;20172;-75
2022/08/19 06:12:33;;;;;;;21.85;16.83;;;19.60;99.90;;;;;;4957721;28;20182;-75
2022/08/19 06:15:05;;;;;;;21.40;17.83;;;19.50;99.90;;;;;;4942461;28;20232;-75
2022/08/19 06:17:31;;;;;;;23.35;17.77;;;19.60;99.90;;;;;;4974982;28;20192;-76
2022/08/19 06:19:56;;;;;;;21.23;18.15;;;19.50;99.90;;;;;;4973847;28;20182;-75
2022/08/19 06:22:22;;;;;;;22.05;18.02;;;19.50;99.90;;;;;;4941464;28;20176;-75
2022/08/19 06:24:52;;;;;;;20.45;16.45;;;19.50;99.90;;;;;;4957695;28;20187;-77
2022/08/19 06:27:18;;;;;;;21.52;17.58;;;19.50;99.90;;;;;;4956580;28;20192;-77
2022/08/19 06:29:44;;;;;;;19.83;13.75;;;19.60;99.90;;;;;;4974595;28;20255;-77
2022/08/19 06:32:10;;;;;;;18.27;16.05;;;19.70;99.90;;;;;;4926236;28;20211;-77
2022/08/19 06:34:36;;;;;;;18.60;15.85;;;20.20;99.90;;;;;;4957514;28;20203;-77
2022/08/19 06:37:02;;;;;;;19.00;15.88;;;20.00;99.90;;;;;;4941261;28;20180;-76
2022/08/19 06:39:34;;;;;;;19.70;16.55;;;20.20;99.90;;;;;;4957327;28;20208;-76
2022/08/19 06:42:03;;;;;;;17.75;14.90;;;20.20;99.90;;;;;;4941763;28;20203;-76
2022/08/19 06:44:34;;;;;;;18.13;15.27;;;20.20;99.90;;;;;;4941840;28;20187;-77
2022/08/19 06:47:03;;;;;;;15.15;13.52;;;20.30;99.90;;;;;;4957455;28;20172;-77
2022/08/19 06:49:30;;;;;;;18.50;14.88;;;20.70;99.90;;;;;;4973054;28;20204;-77
2022/08/19 06:51:57;;;;;;;14.02;12.60;;;20.80;99.90;;;;;;4973144;28;20207;-77
2022/08/19 06:54:23;;;;;;;16.20;13.63;;;20.80;99.90;;;;;;4956639;28;20201;-77
2022/08/19 06:56:49;;;;;;;16.02;13.07;;;20.90;99.90;;;;;;4957679;28;20177;-77
2022/08/19 06:59:20;;;;;;;16.02;13.82;;;20.80;99.90;;;;;;4957370;28;20200;-77
2022/08/19 07:01:51;;;;;;;15.70;13.25;;;20.60;99.90;;;;;;4941442;28;20188;-76
2022/08/19 07:04:26;;;;;;;14.52;12.73;;;20.40;99.90;;;;;;4957473;28;20184;-77
2022/08/19 07:06:59;;;;;;;15.43;13.13;;;20.40;99.90;;;;;;4973223;28;20258;-76
2022/08/19 07:09:24;;;;;;;12.15;10.98;;;20.30;99.90;;;;;;4940995;28;20585;-77
2022/08/19 07:11:52;;;;;;;14.20;12.70;;;20.30;99.90;;;;;;4925093;28;20184;-77
2022/08/19 07:14:21;;;;;;;15.27;13.65;;;20.40;99.90;;;;;;4974159;28;20199;-76
2022/08/19 07:16:48;;;;;;;13.18;11.68;;;20.40;99.90;;;;;;4941034;28;20180;-77
2022/08/19 07:19:16;;;;;;;13.85;12.45;;;20.40;99.90;;;;;;4956863;28;20223;-77
2022/08/19 07:21:42;;;;;;;11.63;10.23;;;20.60;99.90;;;;;;4974303;28;20646;-77
2022/08/19 07:24:08;;;;;;;9.88;8.88;;;20.60;99.90;;;;;;4940892;28;20180;-76
2022/08/19 07:26:39;;;;;;;9.73;8.57;;;20.60;99.90;;;;;;4974169;28;20174;-77
2022/08/19 07:29:05;;;;;;;9.35;7.65;;;20.70;99.90;;;;;;4940987;28;20271;-77
2022/08/19 07:31:36;;;;;;;9.18;6.70;;;20.80;99.90;;;;;;4956565;28;20184;-77
2022/08/19 07:34:06;;;;;;;7.78;6.72;;;20.80;99.90;;;;;;4973092;28;20208;-77
2022/08/19 07:36:33;;;;;;;6.45;5.85;;;20.90;99.90;;;;;;4956959;28;20255;-76
2022/08/19 07:39:02;;;;;;;7.32;5.78;;;21.00;99.90;;;;;;4972587;28;20713;-77
2022/08/19 07:41:30;;;;;;;5.60;5.10;;;20.90;99.90;;;;;;4956803;28;20180;-77
2022/08/19 07:43:56;;;;;;;6.03;5.40;;;20.90;99.90;;;;;;4940860;28;20271;-77
2022/08/19 07:46:21;;;;;;;5.18;4.78;;;20.90;99.90;;;;;;4940808;28;20276;-77
2022/08/19 07:48:49;;;;;;;6.32;5.13;;;20.90;99.90;;;;;;4940651;28;20538;-77
2022/08/19 07:51:19;;;;;;;6.45;4.70;;;21.00;99.90;;;;;;4956545;28;20180;-77
2022/08/19 07:53:45;;;;;;;5.72;4.68;;;21.00;99.90;;;;;;4940690;28;20247;-76
2022/08/19 07:56:12;;;;;;;5.00;4.43;;;21.00;99.90;;;;;;4924765;28;20183;-77
2022/08/19 07:58:41;;;;;;;5.15;4.65;;;21.00;99.90;;;;;;4956365;28;20196;-77
2022/08/19 08:01:09;;;;;;;5.35;4.85;;;21.00;99.90;;;;;;4956210;28;20204;-77
2022/08/19 08:09:10;;;;;;;4.55;3.95;;;21.00;99.90;;;;;;4977896;28;20245;-77
2022/08/19 08:11:38;;;;;;;4.78;4.38;;;21.00;99.90;;;;;;4960140;28;20208;-77
2022/08/19 08:14:04;;;;;;;4.47;4.07;;;21.00;99.90;;;;;;4944035;28;20214;-77
2022/08/19 08:16:33;;;;;;;4.60;4.20;;;21.10;99.90;;;;;;4960369;28;20172;-77
2022/08/19 08:18:59;;;;;;;5.65;4.40;;;21.10;99.90;;;;;;4960076;28;20192;-77
2022/08/19 08:21:25;;;;;;;4.95;4.45;;;21.20;99.90;;;;;;4943998;28;20243;-77
2022/08/19 08:23:51;;;;;;;4.50;4.10;;;21.10;99.90;;;;;;4944358;28;20703;-77
2022/08/19 08:26:17;;;;;;;5.15;4.22;;;21.10;99.90;;;;;;4944414;28;20174;-76
2022/08/19 08:28:43;;;;;;;5.25;4.53;;;21.30;99.90;;;;;;4928205;28;20279;-77
2022/08/19 08:31:09;;;;;;;4.50;4.10;;;21.30;99.90;;;;;;4927899;28;20207;-77
2022/08/19 08:33:34;;;;;;;5.10;4.35;;;21.30;99.90;;;;;;4928501;28;20191;-77
2022/08/19 08:36:07;;;;;;;4.53;3.70;;;21.40;99.90;;;;;;4944093;28;20675;-77
2022/08/19 08:38:33;;;;;;;4.95;3.90;;;21.50;99.90;;;;;;4928621;28;20250;-77
2022/08/19 08:41:27;;;;;;;3.95;3.60;;;21.60;99.90;;;;;;4959079;28;20199;-76
2022/08/19 08:43:55;;;;;;;5.18;4.05;;;21.60;99.90;;;;;;4975366;28;20180;-77
2022/08/19 08:46:48;;;;;;;3.67;3.38;;;21.50;99.90;;;;;;4959641;28;20194;-77
2022/08/19 08:49:33;;;;;;;4.20;3.40;;;21.50;99.90;;;;;;4958911;28;20238;-75
2022/08/19 08:52:07;;;;;;;3.50;3.20;;;21.40;99.90;;;;;;4975372;28;20180;-77
2022/08/19 08:54:46;;;;;;;4.03;3.40;;;21.40;99.90;;;;;;4974953;28;20679;-77
2022/08/19 08:57:34;;;;;;;3.63;3.00;;;21.50;99.90;;;;;;4976204;28;20177;-76
2022/08/19 09:00:05;;;;;;;3.80;3.03;;;21.50;99.90;;;;;;4975002;28;20256;-76
2022/08/19 09:02:31;;;;;;;3.53;3.03;;;21.50;99.90;;;;;;4959171;28;20179;-77
2022/08/19 09:04:56;;;;;;;5.30;3.10;;;21.70;99.90;;;;;;4926988;28;20188;-76
2022/08/19 09:07:29;;;;;;;3.40;2.67;;;21.80;99.90;;;;;;4927126;28;20180;-76
2022/08/19 09:10:19;;;;;;;4.93;2.90;;;21.90;99.90;;;;;;4974637;28;20200;-77
2022/08/19 09:13:12;;;;;;;3.05;2.60;;;21.90;99.90;;;;;;4974895;28;20263;-77
2022/08/19 09:15:51;;;;;;;3.03;2.78;;;22.10;99.90;;;;;;4974739;28;20208;-76
2022/08/19 09:18:16;;;;;;;4.50;2.83;;;22.10;99.90;;;;;;4973925;28;20196;-76
2022/08/19 09:20:42;;;;;;;2.80;2.60;;;22.10;99.90;;;;;;4958523;28;20247;-77
2022/08/19 09:23:10;;;;;;;4.32;2.70;;;22.20;99.90;;;;;;4942838;28;20210;-76
2022/08/19 09:25:36;;;;;;;3.20;2.58;;;22.10;99.90;;;;;;4942872;28;20184;-77
2022/08/19 09:28:03;;;;;;;3.60;3.10;;;22.00;99.90;;;;;;4974440;28;20200;-76
2022/08/19 09:30:37;;;;;;;2.80;2.60;;;21.90;99.90;;;;;;4975570;28;20585;-76
2022/08/19 09:33:02;;;;;;;3.78;2.80;;;21.90;99.90;;;;;;4974463;28;20172;-75
2022/08/19 09:35:30;;;;;;;3.40;2.45;;;21.80;99.90;;;;;;4958397;28;20211;-77
2022/08/19 09:37:57;;;;;;;2.95;2.60;;;21.90;99.90;;;;;;4980387;23;20695;-77
2022/08/19 09:40:23;;;;;;;3.15;2.83;;;22.00;99.90;;;;;;4956133;29;20288;-77
2022/08/19 09:42:49;;;;;;;2.90;2.60;;;22.10;99.90;;;;;;4940809;29;20181;-77
2022/08/19 09:45:17;;;;;;;3.00;2.60;;;22.20;99.90;;;;;;4940559;29;20244;-77
2022/08/19 09:47:43;;;;;;;2.97;2.60;;;22.30;99.90;;;;;;4956067;29;20201;-78
2022/08/19 09:50:12;;;;;;;2.97;2.30;;;22.10;99.90;;;;;;4939994;29;20185;-77
2022/08/19 09:52:38;;;;;;;4.15;2.65;;;22.10;99.90;;;;;;4956136;29;20177;-77
2022/08/19 09:55:09;;;;;;;3.45;2.95;;;22.10;99.90;;;;;;4957839;28;20343;-77
2022/08/19 09:57:34;;;;;;;3.33;2.80;;;21.90;99.90;;;;;;4941877;29;20184;-77
2022/08/19 10:00:00;;;;;;;2.80;2.60;;;21.90;99.90;;;;;;4957994;29;20169;-77
2022/08/19 10:02:26;;;;;;;3.85;2.80;;;22.00;99.90;;;;;;4942423;29;20272;-77
2022/08/19 10:07:36;;;;;;;3.38;2.72;;;22.10;99.90;;;;;;4958320;29;20212;-77
2022/08/19 10:10:06;;;;;;;3.00;2.70;;;22.30;99.90;;;;;;4942104;29;20185;-77
2022/08/19 10:12:33;;;;;;;3.20;2.75;;;22.20;99.90;;;;;;4959404;28;20252;-77
2022/08/19 10:14:59;;;;;;;3.13;2.83;;;22.30;99.90;;;;;;4941903;29;20627;-77
2022/08/19 10:17:25;;;;;;;3.25;2.95;;;22.50;99.90;;;;;;4958039;28;20225;-77
2022/08/19 10:19:51;;;;;;;3.28;2.75;;;22.90;99.90;;;;;;4958752;28;20173;-77
2022/08/19 10:22:18;;;;;;;3.00;2.80;;;23.20;99.90;;;;;;4941789;29;20271;-78
2022/08/19 10:24:45;;;;;;;2.78;2.53;;;23.70;99.90;;;;;;4958189;28;20181;-77
2022/08/19 10:27:13;;;;;;;3.85;2.47;;;24.30;99.90;;;;;;4942670;29;20188;-77
2022/08/19 10:29:39;;;;;;;2.70;2.38;;;24.90;99.90;;;;;;4957457;28;20193;-77
2022/08/19 10:32:08;;;;;;;4.10;2.75;;;25.20;99.90;;;;;;4958891;28;20236;-77
2022/08/19 10:34:36;;;;;;;3.65;2.42;;;25.60;99.90;;;;;;4942061;29;20205;-77
2022/08/19 10:37:05;;;;;;;2.78;2.50;;;25.60;99.90;;;;;;4942104;29;20659;-77
2022/08/19 10:39:33;;;;;;;3.08;2.88;;;25.80;99.90;;;;;;4957844;28;20217;-77
2022/08/19 10:41:59;;;;;;;3.88;3.47;;;25.80;99.90;;;;;;4959283;28;20259;-77
2022/08/19 10:44:25;;;;;;;3.30;2.97;;;25.70;99.90;;;;;;4958462;28;20208;-77
2022/08/19 10:46:51;;;;;;;3.15;2.80;;;25.80;99.90;;;;;;4958913;28;20177;-76
2022/08/19 10:49:18;;;;;;;3.60;2.83;;;25.90;99.90;;;;;;4927862;29;20219;-77
2022/08/19 10:57:19;;;;;;;4.22;2.80;;;26.30;99.90;;;;;;5120720;28;20612;-76
2022/08/19 10:59:44;;;;;;;3.03;2.33;;;26.50;99.90;;;;;;5155398;27;20194;-77
2022/08/19 11:02:11;;;;;;;4.03;2.72;;;26.60;99.90;;;;;;5138185;27;20174;-77
2022/08/19 11:04:39;;;;;;;4.07;2.63;;;26.70;99.90;;;;;;5117604;27;20610;-76
2022/08/19 11:07:05;;;;;;;2.75;2.40;;;26.90;99.90;;;;;;5132422;27;20193;-76
2022/08/19 11:09:35;;;;;;;2.72;2.47;;;27.20;99.90;;;;;;5150752;27;20644;-77
2022/08/19 11:12:01;;;;;;;2.95;2.67;;;27.30;99.90;;;;;;5115884;27;20166;-77
2022/08/19 11:14:30;;;;;;;3.33;2.55;;;27.30;99.90;;;;;;5132506;27;20539;-77
2022/08/19 11:16:56;;;;;;;3.58;2.88;;;27.40;99.90;;;;;;5132521;27;20170;-77
2022/08/19 11:19:23;;;;;;;3.00;2.50;;;27.30;99.90;;;;;;5132397;27;20261;-77
2022/08/19 11:21:50;;;;;;;3.45;2.65;;;27.20;99.90;;;;;;5150571;27;20167;-76
2022/08/19 11:24:21;;;;;;;2.88;2.63;;;26.90;99.90;;;;;;5132172;27;20175;-77
2022/08/19 11:26:49;;;;;;;2.83;2.55;;;27.00;99.90;;;;;;5132127;27;20171;-77
2022/08/19 11:29:15;;;;;;;4.18;2.38;;;26.80;99.90;;;;;;5131866;27;20548;-76
2022/08/19 11:31:43;;;;;;;3.08;2.38;;;26.70;99.90;;;;;;5114933;27;20225;-77
2022/08/19 11:34:13;;;;;;;2.30;2.10;;;26.70;99.90;;;;;;5150411;27;20227;-77
2022/08/19 11:36:42;;;;;;;2.80;2.60;;;26.80;99.90;;;;;;5115060;27;20206;-77
2022/08/19 11:39:09;;;;;;;2.40;2.20;;;26.90;99.90;;;;;;5114890;27;20190;-76
2022/08/19 11:41:35;;;;;;;3.70;2.42;;;26.80;99.90;;;;;;5114624;27;20178;-77
2022/08/19 11:44:02;;;;;;;2.33;2.13;;;26.90;99.90;;;;;;5114890;27;20251;-77
2022/08/19 11:46:29;;;;;;;2.67;1.90;;;26.60;99.90;;;;;;5115097;27;20178;-77
2022/08/19 11:48:56;;;;;;;2.72;2.50;;;26.80;99.90;;;;;;5097760;27;20191;-77
2022/08/19 11:51:26;;;;;;;2.53;2.33;;;26.70;99.90;;;;;;5097359;27;20214;-77
2022/08/19 11:53:54;;;;;;;2.58;2.35;;;26.40;99.90;;;;;;5132353;27;20192;-77
2022/08/19 11:56:21;;;;;;;2.75;2.55;;;26.40;99.90;;;;;;5131686;27;20170;-77
2022/08/19 11:58:47;;;;;;;2.55;2.35;;;26.20;99.90;;;;;;5131352;27;20186;-77
2022/08/19 12:01:15;;;;;;;2.58;2.33;;;26.20;99.90;;;;;;5112086;27;20178;-77
2022/08/19 12:03:42;;;;;;;4.07;2.28;;;26.10;99.90;;;;;;5136114;27;20171;-77
2022/08/19 12:06:14;;;;;;;2.95;2.17;;;26.20;99.90;;;;;;5117718;27;20175;-77
2022/08/19 12:08:44;;;;;;;2.47;2.22;;;26.40;99.90;;;;;;5118580;27;20208;-76
2022/08/19 12:11:12;;;;;;;3.92;2.15;;;26.80;99.90;;;;;;5117337;27;20209;-77
2022/08/19 12:13:38;;;;;;;2.40;2.20;;;27.00;99.90;;;;;;5117648;27;20210;-77
2022/08/19 12:16:14;;;;;;;2.40;2.05;;;26.90;99.90;;;;;;5117600;27;20190;-76
2022/08/19 12:18:43;;;;;;;2.95;2.22;;;26.70;99.90;;;;;;5100649;27;20250;-77
2022/08/19 12:21:10;;;;;;;2.47;2.28;;;26.40;99.90;;;;;;5100734;27;20170;-77
2022/08/19 12:23:37;;;;;;;2.25;2.00;;;26.10;99.90;;;;;;5117544;27;20224;-76
2022/08/19 12:26:04;;;;;;;2.50;2.30;;;25.90;99.90;;;;;;5117455;27;20170;-78
2022/08/19 12:28:30;;;;;;;2.95;2.10;;;25.80;99.90;;;;;;5135729;27;20187;-77
2022/08/19 12:30:56;;;;;;;2.60;2.40;;;25.70;99.90;;;;;;5135320;27;20536;-77
2022/08/19 12:33:24;;;;;;;2.58;2.20;;;25.80;99.90;;;;;;5117201;27;20182;-77
2022/08/19 12:35:50;;;;;;;2.50;2.30;;;25.90;99.90;;;;;;5084118;27;20266;-77
2022/08/19 12:38:16;;;;;;;2.92;2.45;;;25.90;99.90;;;;;;5100060;27;20274;-76
2022/08/19 12:40:45;;;;;;;2.83;2.30;;;25.90;99.90;;;;;;5135244;27;20163;-76
2022/08/19 12:43:11;;;;;;;2.90;2.58;;;25.90;99.90;;;;;;5117065;27;20174;-77
2022/08/19 12:45:37;;;;;;;2.60;2.33;;;26.00;99.90;;;;;;5099861;27;20270;-77
2022/08/19 12:48:04;;;;;;;2.60;2.40;;;26.20;99.90;;;;;;5116983;27;20199;-77
2022/08/19 12:50:30;;;;;;;2.45;2.22;;;26.40;99.90;;;;;;5099835;27;20240;-77
2022/08/19 12:52:57;;;;;;;2.70;2.50;;;26.60;99.90;;;;;;5099866;27;20219;-77
2022/08/19 12:55:24;;;;;;;2.85;2.50;;;26.70;99.90;;;;;;5135117;27;20163;-77
2022/08/19 12:57:50;;;;;;;2.30;2.10;;;26.90;99.90;;;;;;5116506;27;20195;-77
2022/08/19 13:00:20;;;;;;;2.80;2.30;;;27.20;99.90;;;;;;5134728;27;20262;-76
2022/08/19 13:02:49;;;;;;;2.35;2.15;;;27.40;99.90;;;;;;5116456;27;20213;-77